Selah, WA (98942)

11:55 AM PST on February 25, 2017 (GMT -0800)
Hillcrest | | Change Station

Elev 1250 ft 46.65 °N, 120.54 °W | Updated 16 seconds ago

Clear
Clear
38.7 °F
Feels Like 35 °F
N
4.7
Wind Variable Wind from ESE
Gusts 4.9 mph

Today
High -- | Low -- °F
--% Chance of Precip.
Yesterday
High -- | Low -- °F
Precip. -- in
Pressure 30.13 in
Visibility 10.0 miles
Clouds Clear
Windchill 35 °F
Dew Point 20 °F
Humidity 47%
Rainfall 0.00 in
Snow Depth Not available.
6:48 AM 5:42 PM
Waning Crescent, 1% visible
METAR K1YT 251858Z AUTO 28003KT 10SM CLR M01/M06 A3013 RMK AO2 SLPNO T10131064 $
Pressure 30.13 in
Visibility 10.0 miles
Clouds Clear
Windchill 35 °F
Dew Point 20 °F
Humidity 47%
Rainfall 0.00 in
Snow Depth Not available.
6:48 AM 5:42 PM
Waning Crescent, 1% visible
METAR K1YT 251858Z AUTO 28003KT 10SM CLR M01/M06 A3013 RMK AO2 SLPNO T10131064 $

Get Your Daily Forecast Email!

Thanks for signing up!

Be on the lookout for a verification email in your inbox.

You'll start receiving the daily forecast at 8 AM.

×

10-Day Weather Forecast

Almanac

Astronomy

Feb. 25, 2017 Rise Set
Actual Time
Civil Twilight
Nautical Twilight
Astronomical Twilight
Moon
Length of Visible Light
Length of Day
Tomorrow will be .
, % of the Moon is Illuminated

Today's Extremes

State Highs State Lows

Community

WunderPhotos

Upload Photos

1,962,540 photos uploaded!

WunderBlog® & News

Nearby

Air Quality

  Air Quality AQ Index Pollutant
Not available.

Snow Depth

Station Depth Elevation

Earthquake Activity

City Distance Mag. Time & Date
Minimum magnitude displayed is 2.5.

Coastal Water Temperatures

Place Temperature

Stations

Nearby Weather Stations

Station Location Temp. Windchill Dew Point Humidity Wind Precip. Elev Updated Type
                   

Watches & Warnings

There are currently no watches in effect.